Time;durP1;ratioP1;P1;durP2;ratioP2;P2;SDS_P1;SDS_P2;PMS_P1;PMS_P2;Temp;Humidity;BMP_temperature;BMP_pressure;BME280_temperature;BME280_humidity;BME280_pressure;Samples;Min_cycle;Max_cycle;Signal;HPM_P1;HPM_P2
2022/06/10 00:00:42;;;;;;;4.57;2.15;;;15.70;99.90;;;;;;5012401;28;20030;-53
2022/06/10 00:03:09;;;;;;;6.50;2.08;;;15.70;99.90;;;;;;5012084;28;20484;-50
2022/06/10 00:05:36;;;;;;;6.43;2.03;;;15.70;99.90;;;;;;5012557;28;20465;-42
2022/06/10 00:08:12;;;;;;;5.05;1.83;;;15.70;99.90;;;;;;5012309;28;20056;-46
2022/06/10 00:10:38;;;;;;;6.20;1.77;;;15.70;99.90;;;;;;5012540;28;20022;-42
2022/06/10 00:13:05;;;;;;;4.22;1.40;;;15.70;99.90;;;;;;5012297;28;20492;-54
2022/06/10 00:15:31;;;;;;;4.35;1.50;;;15.70;99.90;;;;;;5012466;28;20373;-48
2022/06/10 00:17:57;;;;;;;4.72;1.60;;;15.70;99.90;;;;;;5012203;28;20029;-48
2022/06/10 00:20:27;;;;;;;3.75;1.60;;;15.70;99.90;;;;;;5012253;28;20112;-56
2022/06/10 00:22:54;;;;;;;3.83;1.45;;;15.70;99.90;;;;;;5012330;28;20065;-49
2022/06/10 00:25:20;;;;;;;4.43;1.30;;;15.70;99.90;;;;;;5012285;28;20029;-48
2022/06/10 00:27:48;;;;;;;3.58;1.55;;;15.70;99.90;;;;;;5012085;28;20030;-54
2022/06/10 00:30:16;;;;;;;3.03;1.27;;;15.70;99.90;;;;;;5012056;28;20017;-50
2022/06/10 00:32:41;;;;;;;5.32;1.65;;;15.60;99.90;;;;;;5012360;28;20037;-46
2022/06/10 00:35:08;;;;;;;4.50;1.40;;;15.70;99.90;;;;;;5012125;28;20022;-53
2022/06/10 00:37:34;;;;;;;4.07;1.83;;;15.60;99.90;;;;;;5011834;28;20037;-44
2022/06/10 00:40:00;;;;;;;3.25;1.30;;;15.70;99.90;;;;;;5012038;28;20026;-52
2022/06/10 00:42:25;;;;;;;3.90;1.30;;;15.60;99.90;;;;;;5011763;28;20030;-47
2022/06/10 00:44:53;;;;;;;2.88;1.42;;;15.60;99.90;;;;;;5011909;28;20112;-42
2022/06/10 00:47:38;;;;;;;4.88;1.20;;;15.60;99.90;;;;;;5011589;28;20041;-44
2022/06/10 00:50:28;;;;;;;5.35;1.60;;;15.60;99.90;;;;;;5012082;28;20037;-47
2022/06/10 00:52:59;;;;;;;3.55;1.30;;;15.50;99.90;;;;;;5011821;28;20029;-45
2022/06/10 00:55:28;;;;;;;3.38;1.35;;;15.60;99.90;;;;;;5011788;28;20543;-49
2022/06/10 00:58:08;;;;;;;2.67;1.05;;;15.50;99.90;;;;;;5011423;28;20113;-52
2022/06/10 01:00:37;;;;;;;3.10;1.00;;;15.50;99.90;;;;;;5011674;28;20125;-46
2022/06/10 01:03:03;;;;;;;1.80;1.10;;;15.60;99.90;;;;;;5011623;28;20457;-52
2022/06/10 01:05:29;;;;;;;2.13;1.13;;;15.60;99.90;;;;;;5011456;28;20042;-51
2022/06/10 01:08:01;;;;;;;2.20;1.02;;;15.50;99.90;;;;;;5011268;28;20026;-56
2022/06/10 01:10:29;;;;;;;2.20;1.10;;;15.60;99.90;;;;;;5011711;28;20472;-44
2022/06/10 01:13:03;;;;;;;2.97;1.50;;;15.60;99.90;;;;;;5010059;28;20401;-48
2022/06/10 01:15:47;;;;;;;3.15;1.33;;;15.60;99.90;;;;;;5010835;28;20018;-55
2022/06/10 01:18:31;;;;;;;4.68;1.73;;;15.50;99.90;;;;;;5010924;28;20064;-44
2022/06/10 01:21:03;;;;;;;6.88;2.25;;;15.50;99.90;;;;;;5011602;28;20057;-46
2022/06/10 01:23:37;;;;;;;4.60;2.08;;;15.50;99.90;;;;;;5011276;28;20461;-52
2022/06/10 01:26:32;;;;;;;5.03;2.40;;;15.60;99.90;;;;;;5011406;28;20072;-54
2022/06/10 01:29:22;;;;;;;5.25;2.30;;;15.50;99.90;;;;;;5010998;28;20026;-55
2022/06/10 01:32:00;;;;;;;7.35;2.53;;;15.50;99.90;;;;;;5011188;28;20030;-51
2022/06/10 01:34:41;;;;;;;8.82;2.78;;;15.50;99.90;;;;;;5011320;28;20041;-49
2022/06/10 01:37:19;;;;;;;5.78;2.17;;;15.60;99.90;;;;;;5011005;28;20148;-51
2022/06/10 01:40:12;;;;;;;5.50;2.20;;;15.60;99.90;;;;;;5011281;28;20479;-50
2022/06/10 01:43:06;;;;;;;6.25;2.35;;;15.60;99.90;;;;;;5011201;28;20062;-42
2022/06/10 01:45:32;;;;;;;4.38;2.00;;;15.60;99.90;;;;;;5010964;28;20108;-58
2022/06/10 01:48:19;;;;;;;5.20;1.92;;;15.60;99.90;;;;;;5011090;28;20133;-55
2022/06/10 01:50:47;;;;;;;7.07;2.10;;;15.60;99.90;;;;;;5011011;28;20038;-55
2022/06/10 01:53:37;;;;;;;5.13;1.98;;;15.60;99.90;;;;;;5011101;28;20033;-45
2022/06/10 01:56:12;;;;;;;8.65;1.98;;;15.60;99.90;;;;;;5011196;28;20026;-58
2022/06/10 01:58:51;;;;;;;6.28;2.00;;;15.60;99.90;;;;;;5011008;28;20112;-57
2022/06/10 02:01:32;;;;;;;4.40;1.90;;;15.60;99.90;;;;;;5010945;28;20033;-51
2022/06/10 02:04:11;;;;;;;7.15;2.08;;;15.60;99.90;;;;;;5011013;28;20037;-44
2022/06/10 02:07:01;;;;;;;5.10;2.20;;;15.60;99.90;;;;;;5010877;28;20460;-49
2022/06/10 02:09:33;;;;;;;5.15;2.35;;;15.60;99.90;;;;;;5007899;28;20041;-49
2022/06/10 02:12:06;;;;;;;12.93;2.70;;;15.60;99.90;;;;;;5011083;28;20026;-52
2022/06/10 02:14:44;;;;;;;8.75;3.13;;;15.70;99.90;;;;;;5010871;28;20120;-55
2022/06/10 02:17:11;;;;;;;8.73;3.90;;;15.60;99.90;;;;;;5010733;28;20477;-55
2022/06/10 02:19:46;;;;;;;12.18;3.78;;;15.60;99.90;;;;;;5010599;28;20145;-47
2022/06/10 02:22:24;;;;;;;10.80;3.80;;;15.60;99.90;;;;;;5010777;28;20044;-45
2022/06/10 02:24:57;;;;;;;19.02;4.80;;;15.60;99.90;;;;;;5010901;28;20391;-50
2022/06/10 02:27:28;;;;;;;13.50;4.57;;;15.60;99.90;;;;;;5012337;28;20026;-49
2022/06/10 02:30:01;;;;;;;25.33;5.97;;;15.60;99.90;;;;;;5014565;28;20025;-54
2022/06/10 02:32:28;;;;;;;19.30;5.50;;;15.60;99.90;;;;;;5014379;28;20055;-44
2022/06/10 02:34:54;;;;;;;18.75;5.82;;;15.50;99.90;;;;;;5014446;28;20109;-46
2022/06/10 02:37:25;;;;;;;25.67;6.03;;;15.60;99.90;;;;;;5014444;28;20145;-50
2022/06/10 02:40:02;;;;;;;18.95;6.00;;;15.50;99.90;;;;;;5014368;28;20026;-49
2022/06/10 02:42:49;;;;;;;20.25;6.55;;;15.50;99.90;;;;;;5014078;28;20492;-47
2022/06/10 02:45:26;;;;;;;23.58;6.25;;;15.50;99.90;;;;;;5014225;28;20461;-47
2022/06/10 02:48:17;;;;;;;19.65;6.18;;;15.50;99.90;;;;;;5013848;28;20038;-43
2022/06/10 02:50:46;;;;;;;24.92;6.07;;;15.60;99.90;;;;;;5013890;28;20026;-45
2022/06/10 02:53:13;;;;;;;24.17;6.67;;;15.60;99.90;;;;;;5014110;28;20033;-47
2022/06/10 02:55:39;;;;;;;27.80;6.60;;;15.50;99.90;;;;;;5013843;28;20618;-47
2022/06/10 03:04:14;;;;;;;22.40;6.10;;;15.50;99.90;;;;;;5014181;28;20044;-50
2022/06/10 03:06:51;;;;;;;20.92;6.28;;;15.50;99.90;;;;;;5012838;28;20046;-46
2022/06/10 03:09:31;;;;;;;33.38;6.85;;;15.50;99.90;;;;;;5012784;28;20436;-51
2022/06/10 03:12:26;;;;;;;22.77;6.55;;;15.50;99.90;;;;;;5009962;28;20044;-48
2022/06/10 03:15:13;;;;;;;27.33;7.25;;;15.50;99.90;;;;;;5005308;28;20042;-54
2022/06/10 03:17:42;;;;;;;24.30;7.15;;;15.50;99.90;;;;;;5002997;28;20080;-45
2022/06/10 03:20:50;;;;;;;20.80;6.80;;;15.40;99.90;;;;;;5013208;28;20105;-48
2022/06/10 03:23:24;;;;;;;28.63;6.50;;;15.40;99.90;;;;;;5011688;28;20448;-49
2022/06/10 03:26:02;;;;;;;21.13;6.53;;;15.40;99.90;;;;;;5013336;28;20025;-51
2022/06/10 03:28:49;;;;;;;23.55;6.38;;;15.40;99.90;;;;;;5008756;28;20444;-61
2022/06/10 03:31:34;;;;;;;23.98;6.25;;;15.40;99.90;;;;;;5013241;28;20034;-48
2022/06/10 03:34:23;;;;;;;19.83;6.30;;;15.40;99.90;;;;;;5013226;28;20088;-52
2022/06/10 03:36:51;;;;;;;25.95;6.63;;;15.30;99.90;;;;;;5012339;28;20042;-52
2022/06/10 03:39:20;;;;;;;24.42;6.22;;;15.30;99.90;;;;;;5011922;28;20412;-46
2022/06/10 03:41:55;;;;;;;;;;;15.30;99.90;;;;;;5013369;28;20140;-52
2022/06/10 03:44:21;;;;;;;26.70;7.07;;;15.30;99.90;;;;;;5012999;28;19905;-48
2022/06/10 03:46:50;;;;;;;23.25;6.22;;;15.30;99.90;;;;;;5027910;28;20117;-51
2022/06/10 03:49:19;;;;;;;26.60;6.97;;;15.30;99.90;;;;;;5013182;28;20034;-46
2022/06/10 03:51:46;;;;;;;26.80;7.15;;;15.30;99.90;;;;;;5012867;28;20071;-53
2022/06/10 03:54:18;;;;;;;25.45;6.90;;;15.30;99.90;;;;;;5013028;28;20033;-55
2022/06/10 03:56:44;;;;;;;28.23;7.60;;;15.30;99.90;;;;;;5012544;28;20034;-52
2022/06/10 03:59:10;;;;;;;30.33;7.13;;;15.30;99.90;;;;;;5012992;28;20026;-54
2022/06/10 04:01:35;;;;;;;31.65;8.35;;;15.30;99.90;;;;;;5012741;28;20049;-47
2022/06/10 04:04:01;;;;;;;29.33;7.95;;;15.30;99.90;;;;;;5012570;28;20014;-48
2022/06/10 04:06:27;;;;;;;27.63;7.57;;;15.30;99.90;;;;;;5012605;28;20054;-55
2022/06/10 04:08:53;;;;;;;26.80;7.90;;;15.30;99.90;;;;;;5012114;28;20026;-52
2022/06/10 04:11:19;;;;;;;26.60;7.60;;;15.30;99.90;;;;;;5012611;28;20030;-50
2022/06/10 04:13:45;;;;;;;30.75;8.40;;;15.30;99.90;;;;;;5012388;28;20477;-42
2022/06/10 04:16:11;;;;;;;34.80;8.60;;;15.40;99.90;;;;;;5012482;28;20041;-42
2022/06/10 04:18:37;;;;;;;23.63;7.50;;;15.30;99.90;;;;;;5012059;28;20037;-42
2022/06/10 04:21:04;;;;;;;26.88;8.20;;;15.30;99.90;;;;;;5012184;28;20105;-56
2022/06/10 04:23:30;;;;;;;26.88;7.78;;;15.30;99.90;;;;;;5012387;28;20057;-46
2022/06/10 04:25:55;;;;;;;25.92;7.32;;;15.40;99.90;;;;;;5012182;28;20053;-45
2022/06/10 04:28:21;;;;;;;21.48;6.82;;;15.40;99.90;;;;;;5011923;28;20029;-44
2022/06/10 04:30:49;;;;;;;27.33;6.97;;;15.40;99.90;;;;;;5012274;28;20026;-47
2022/06/10 04:33:15;;;;;;;30.70;7.40;;;15.40;99.90;;;;;;5012181;28;20013;-42
2022/06/10 04:35:42;;;;;;;18.73;7.28;;;15.50;99.90;;;;;;5012237;28;20499;-47
2022/06/10 04:38:09;;;;;;;24.77;7.40;;;15.50;99.90;;;;;;5011616;28;20026;-52
2022/06/10 04:40:36;;;;;;;25.75;7.00;;;15.50;99.90;;;;;;5012031;28;20065;-49
2022/06/10 04:43:03;;;;;;;26.92;6.70;;;15.50;99.90;;;;;;5011808;28;20496;-51
2022/06/10 04:45:32;;;;;;;24.45;6.65;;;15.50;99.90;;;;;;5011949;28;20033;-43
2022/06/10 04:47:58;;;;;;;;;;;15.50;99.90;;;;;;5011862;28;20022;-45
2022/06/10 04:50:27;;;;;;;27.30;7.07;;;15.50;99.90;;;;;;5011804;28;19963;-52
2022/06/10 04:52:53;;;;;;;25.95;7.15;;;15.60;99.90;;;;;;5011858;28;20026;-53
2022/06/10 04:55:20;;;;;;;28.48;6.65;;;15.60;99.90;;;;;;5011764;28;20026;-52
2022/06/10 04:57:46;;;;;;;25.45;7.38;;;15.60;99.90;;;;;;5011360;28;20018;-48
2022/06/10 05:00:25;;;;;;;22.60;7.50;;;15.60;99.90;;;;;;5011609;28;20036;-48
2022/06/10 05:02:51;;;;;;;30.88;7.57;;;15.60;99.90;;;;;;5011682;28;20399;-50
2022/06/10 05:05:17;;;;;;;23.02;6.28;;;15.60;99.90;;;;;;5011374;28;20046;-51
2022/06/10 05:07:43;;;;;;;21.23;6.47;;;15.60;99.90;;;;;;5011367;28;20420;-51
2022/06/10 05:10:11;;;;;;;21.67;6.60;;;15.70;99.90;;;;;;5011706;28;20018;-47
2022/06/10 05:12:36;;;;;;;19.92;6.13;;;15.70;99.90;;;;;;5010039;28;20022;-49
2022/06/10 05:15:02;;;;;;;20.30;6.25;;;15.70;99.90;;;;;;5011422;28;20028;-50
2022/06/10 05:17:28;;;;;;;25.73;7.57;;;15.70;99.90;;;;;;5009795;28;20409;-47
2022/06/10 05:19:54;;;;;;;26.33;6.70;;;15.80;99.90;;;;;;5010214;28;20130;-50
2022/06/10 05:22:19;;;;;;;25.85;6.88;;;15.70;99.90;;;;;;5010347;28;20049;-45
2022/06/10 05:24:45;;;;;;;18.92;5.80;;;15.70;99.90;;;;;;5011543;28;20082;-45
2022/06/10 05:27:11;;;;;;;21.73;7.05;;;15.70;99.90;;;;;;5011193;28;20036;-51
2022/06/10 05:29:36;;;;;;;20.15;6.65;;;15.70;99.90;;;;;;5011075;28;20022;-51
2022/06/10 05:32:03;;;;;;;21.17;6.35;;;15.80;99.90;;;;;;5010680;28;20038;-55
2022/06/10 05:34:44;;;;;;;21.88;6.25;;;15.90;99.90;;;;;;5010874;28;20026;-52
2022/06/10 05:37:11;;;;;;;16.08;5.78;;;15.90;99.90;;;;;;5008470;28;20036;-54
2022/06/10 05:39:36;;;;;;;25.10;6.78;;;16.00;99.90;;;;;;5010909;28;20018;-54
2022/06/10 05:42:05;;;;;;;17.75;6.30;;;16.10;99.90;;;;;;5011033;28;20072;-56
2022/06/10 05:44:38;;;;;;;23.58;5.90;;;16.20;99.90;;;;;;5011115;28;20018;-59
2022/06/10 05:47:06;;;;;;;17.08;5.35;;;16.30;99.90;;;;;;5010881;28;20121;-59
2022/06/10 05:49:33;;;;;;;19.67;6.32;;;16.40;99.90;;;;;;5010901;28;20017;-54
2022/06/10 05:51:58;;;;;;;19.35;6.22;;;16.40;99.90;;;;;;5011130;28;20493;-54
2022/06/10 05:54:25;;;;;;;20.38;6.10;;;16.40;99.90;;;;;;5006748;28;20060;-48
2022/06/10 05:56:50;;;;;;;22.25;6.70;;;16.50;99.90;;;;;;5009989;28;20239;-50
2022/06/10 05:59:18;;;;;;;21.70;6.28;;;16.50;99.90;;;;;;5007910;28;20057;-44
2022/06/10 06:01:44;;;;;;;22.60;5.85;;;16.70;99.90;;;;;;5011998;28;20030;-55
2022/06/10 06:04:11;;;;;;;21.77;5.32;;;16.80;99.90;;;;;;5014418;28;20488;-53
2022/06/10 06:06:37;;;;;;;15.57;5.03;;;16.90;99.90;;;;;;5014026;28;20064;-44
2022/06/10 06:09:03;;;;;;;13.98;4.47;;;16.90;99.90;;;;;;5014784;28;20034;-57
2022/06/10 06:11:29;;;;;;;13.70;4.72;;;16.80;99.90;;;;;;5014834;28;20129;-53
2022/06/10 06:13:57;;;;;;;16.65;4.05;;;16.80;99.90;;;;;;5012710;28;20180;-48
2022/06/10 06:16:24;;;;;;;15.02;4.68;;;16.70;99.90;;;;;;5012683;28;20536;-47
2022/06/10 06:18:51;;;;;;;17.48;4.28;;;16.70;99.90;;;;;;5012498;28;20425;-53
2022/06/10 06:21:17;;;;;;;14.20;3.88;;;16.60;99.90;;;;;;5012534;28;20045;-45
2022/06/10 06:23:42;;;;;;;13.45;3.53;;;16.60;99.90;;;;;;5012686;28;20034;-51
2022/06/10 06:26:13;;;;;;;12.45;4.03;;;16.70;99.90;;;;;;5011405;28;20033;-55
2022/06/10 06:28:39;;;;;;;15.82;3.75;;;16.60;99.90;;;;;;5013543;28;20384;-48
2022/06/10 06:31:05;;;;;;;17.02;4.22;;;16.50;99.90;;;;;;5014521;28;20022;-51
2022/06/10 06:33:30;;;;;;;10.65;3.45;;;16.50;99.90;;;;;;5014505;28;20476;-48
2022/06/10 06:35:56;;;;;;;9.60;3.50;;;16.50;99.90;;;;;;5014322;28;20037;-51
2022/06/10 06:38:23;;;;;;;11.90;3.85;;;16.50;99.90;;;;;;5014351;28;20022;-52
2022/06/10 06:40:49;;;;;;;10.18;3.10;;;16.50;99.90;;;;;;5014280;28;20129;-55
2022/06/10 06:43:14;;;;;;;8.90;2.83;;;16.40;99.90;;;;;;5014032;28;20105;-45
2022/06/10 06:45:42;;;;;;;8.38;3.25;;;16.40;99.90;;;;;;5014250;28;20536;-52
2022/06/10 06:48:10;;;;;;;7.05;3.25;;;16.40;99.90;;;;;;5014105;28;20022;-58
2022/06/10 06:50:45;;;;;;;10.00;3.17;;;16.40;99.90;;;;;;5013781;28;20083;-51
2022/06/10 06:53:11;;;;;;;12.65;3.45;;;16.40;99.90;;;;;;5013929;28;20084;-57
2022/06/10 06:55:38;;;;;;;9.25;3.40;;;16.50;99.90;;;;;;5013717;28;20431;-54
2022/06/10 06:58:06;;;;;;;9.48;3.60;;;16.60;99.90;;;;;;5013768;28;20084;-54
2022/06/10 07:00:32;;;;;;;12.20;3.85;;;16.70;99.90;;;;;;5013460;28;20028;-44
2022/06/10 07:02:58;;;;;;;10.63;3.22;;;16.70;99.90;;;;;;5012249;28;20022;-44
2022/06/10 07:05:24;;;;;;;12.75;3.35;;;16.80;99.90;;;;;;5010772;28;20054;-46
2022/06/10 07:07:50;;;;;;;9.43;3.55;;;16.80;99.90;;;;;;5002802;28;20025;-46
2022/06/10 07:10:18;;;;;;;9.23;3.38;;;16.90;99.90;;;;;;5007255;28;20507;-44
2022/06/10 07:12:44;;;;;;;12.00;3.50;;;16.90;99.90;;;;;;4993567;28;20109;-43
2022/06/10 07:15:10;;;;;;;10.70;3.10;;;16.90;99.90;;;;;;4995413;28;20106;-45
2022/06/10 07:17:37;;;;;;;11.40;3.50;;;16.90;99.90;;;;;;4997192;28;20088;-44
2022/06/10 07:20:04;;;;;;;9.60;3.30;;;17.00;99.90;;;;;;5013189;28;20109;-44
2022/06/10 07:22:30;;;;;;;12.55;4.10;;;17.20;99.90;;;;;;5013117;28;20052;-50
2022/06/10 07:24:56;;;;;;;15.10;3.83;;;17.50;99.90;;;;;;5013397;28;20021;-43
2022/06/10 07:27:22;;;;;;;10.88;4.20;;;17.70;99.90;;;;;;5013133;28;20051;-48
2022/06/10 07:29:48;;;;;;;11.20;3.90;;;17.90;99.10;;;;;;5013266;28;20017;-51
2022/06/10 07:32:14;;;;;;;14.95;4.97;;;17.90;99.00;;;;;;5013153;28;20026;-58
2022/06/10 07:34:40;;;;;;;12.98;4.65;;;17.80;99.30;;;;;;5013229;28;20092;-51
2022/06/10 07:37:06;;;;;;;11.85;4.53;;;18.00;99.50;;;;;;5011972;28;20049;-49
2022/06/10 07:39:33;;;;;;;15.23;4.72;;;18.20;97.70;;;;;;5012761;28;20049;-46
2022/06/10 07:42:02;;;;;;;16.67;5.00;;;18.30;97.80;;;;;;5013013;28;20046;-54
2022/06/10 07:44:32;;;;;;;15.88;4.78;;;18.20;97.60;;;;;;5012856;28;20021;-51
2022/06/10 07:47:01;;;;;;;16.48;4.82;;;18.20;97.20;;;;;;5012443;28;20053;-56
2022/06/10 07:49:27;;;;;;;14.20;4.90;;;18.20;96.90;;;;;;5012836;28;20507;-58
2022/06/10 07:51:53;;;;;;;17.25;5.50;;;18.00;97.40;;;;;;5012385;28;20274;-53
2022/06/10 07:54:19;;;;;;;20.38;5.20;;;17.90;97.40;;;;;;5011686;28;20033;-50
2022/06/10 07:56:46;;;;;;;20.40;4.75;;;17.80;98.00;;;;;;5012558;28;20026;-56
2022/06/10 07:59:12;;;;;;;16.05;4.72;;;18.00;98.70;;;;;;5012583;28;20036;-57
2022/06/10 08:01:38;;;;;;;16.98;4.65;;;18.10;97.50;;;;;;5012539;28;20038;-54
2022/06/10 08:04:06;;;;;;;21.55;5.68;;;18.70;97.20;;;;;;5012456;28;20105;-44
2022/06/10 08:06:34;;;;;;;18.08;4.10;;;19.50;97.10;;;;;;5012288;28;20141;-63
2022/06/10 08:09:01;;;;;;;15.50;4.13;;;20.10;94.00;;;;;;5012653;28;20026;-60
2022/06/10 08:11:27;;;;;;;18.38;4.35;;;20.50;92.00;;;;;;5012680;28;20026;-56
2022/06/10 08:13:52;;;;;;;19.95;4.20;;;21.20;92.60;;;;;;5012327;28;20022;-47
2022/06/10 08:16:18;;;;;;;13.95;3.75;;;22.20;90.70;;;;;;5012162;28;20029;-54
2022/06/10 08:18:45;;;;;;;15.57;4.15;;;23.00;85.10;;;;;;5011881;28;20017;-58
2022/06/10 08:23:56;;;;;;;17.10;4.38;;;24.30;85.60;;;;;;5009480;28;20555;-55
2022/06/10 08:26:22;;;;;;;15.02;3.65;;;24.40;79.50;;;;;;5011831;28;20476;-59
2022/06/10 08:28:48;;;;;;;14.52;3.65;;;24.20;80.10;;;;;;5011731;28;20037;-58
2022/06/10 08:31:14;;;;;;;15.77;3.78;;;24.00;73.00;;;;;;5011945;28;20026;-56
2022/06/10 08:33:40;;;;;;;19.52;4.35;;;23.10;76.10;;;;;;5011548;28;20310;-62
2022/06/10 08:36:07;;;;;;;15.50;4.13;;;22.70;82.70;;;;;;5011317;28;20022;-52
2022/06/10 08:38:34;;;;;;;14.20;3.38;;;23.00;84.00;;;;;;5008154;28;20389;-57
2022/06/10 08:41:12;;;;;;;13.90;4.03;;;23.60;76.00;;;;;;5011943;28;20038;-51
2022/06/10 08:44:04;;;;;;;18.40;4.13;;;24.10;82.80;;;;;;5011590;28;20022;-55
2022/06/10 08:46:45;;;;;;;13.65;3.40;;;24.70;79.50;;;;;;5011686;28;20088;-51
2022/06/10 08:49:24;;;;;;;15.40;4.25;;;24.40;70.10;;;;;;4999606;28;20389;-46
2022/06/10 08:52:08;;;;;;;20.02;4.35;;;24.20;73.90;;;;;;5005154;28;20026;-49
2022/06/10 08:55:18;;;;;;;13.95;3.80;;;24.50;72.20;;;;;;5010832;28;20109;-52
2022/06/10 08:57:45;;;;;;;15.80;4.35;;;25.10;76.90;;;;;;5010930;28;20018;-52
2022/06/10 09:00:25;;;;;;;12.77;3.53;;;25.10;70.20;;;;;;5010614;28;20092;-53
2022/06/10 09:03:13;;;;;;;14.30;3.80;;;25.30;74.70;;;;;;5008646;28;20045;-53
2022/06/10 09:05:56;;;;;;;16.27;4.70;;;25.40;70.00;;;;;;5008601;28;20033;-56
2022/06/10 09:08:30;;;;;;;18.70;3.75;;;25.80;76.20;;;;;;5011166;28;20501;-48
2022/06/10 09:11:05;;;;;;;17.52;4.30;;;25.70;65.90;;;;;;5003012;28;20504;-55
2022/06/10 09:13:35;;;;;;;18.65;4.47;;;25.40;70.30;;;;;;5007036;28;20488;-48
2022/06/10 09:16:20;;;;;;;16.30;4.35;;;24.90;71.40;;;;;;5011527;28;20033;-45
2022/06/10 09:19:08;;;;;;;14.05;3.88;;;25.00;72.20;;;;;;5008128;28;20045;-49
2022/06/10 09:21:37;;;;;;;15.15;4.05;;;25.40;67.30;;;;;;5000169;28;20150;-53
2022/06/10 09:24:10;;;;;;;17.10;4.53;;;25.40;70.70;;;;;;5010833;28;20032;-43
2022/06/10 09:26:41;;;;;;;15.10;4.30;;;25.30;71.90;;;;;;5011275;28;20033;-47
2022/06/10 09:29:08;;;;;;;18.13;4.20;;;25.10;76.50;;;;;;5011121;28;20543;-55
2022/06/10 09:31:48;;;;;;;17.25;4.53;;;25.40;71.40;;;;;;5011128;28;20101;-55
2022/06/10 09:34:37;;;;;;;18.13;4.07;;;25.00;69.30;;;;;;5010983;28;20465;-45
2022/06/10 09:37:21;;;;;;;15.32;4.40;;;25.10;71.00;;;;;;5009468;28;20480;-54
2022/06/10 09:42:59;;;;;;;17.33;4.32;;;25.40;66.70;;;;;;4996673;28;20041;-45
2022/06/10 09:45:31;;;;;;;11.98;3.70;;;25.40;68.30;;;;;;5001571;28;20477;-55
2022/06/10 09:48:35;;;;;;;14.50;3.83;;;25.30;64.40;;;;;;4994716;28;20034;-47
2022/06/10 09:51:21;;;;;;;18.73;4.13;;;25.30;70.00;;;;;;4985339;28;20393;-50
2022/06/10 09:54:18;;;;;;;21.67;5.13;;;25.10;68.80;;;;;;5004259;28;20030;-55
2022/06/10 09:56:46;;;;;;;16.50;4.57;;;25.30;65.70;;;;;;5008405;28;20025;-51
2022/06/10 09:59:19;;;;;;;22.77;4.80;;;25.60;72.30;;;;;;5010950;28;20136;-50
2022/06/10 10:02:17;;;;;;;23.85;5.05;;;25.60;67.20;;;;;;5007695;28;20404;-50
2022/06/10 10:05:02;;;;;;;20.30;4.87;;;25.50;65.90;;;;;;5009645;28;20036;-53
2022/06/10 10:07:53;;;;;;;20.27;4.30;;;25.90;67.60;;;;;;5008137;28;20053;-52
2022/06/10 10:10:55;;;;;;;17.50;4.22;;;26.10;65.60;;;;;;5008152;28;20072;-45
2022/06/10 10:13:24;;;;;;;17.05;4.47;;;26.20;66.80;;;;;;4974824;28;20026;-48
2022/06/10 10:16:17;;;;;;;14.35;3.85;;;26.00;61.20;;;;;;5010825;28;20026;-47
2022/06/10 10:19:08;;;;;;;15.55;4.63;;;25.70;64.40;;;;;;5007537;28;20030;-44
2022/06/10 10:22:00;;;;;;;17.15;4.65;;;25.50;71.20;;;;;;5010857;28;20029;-47
2022/06/10 10:24:26;;;;;;;18.02;4.53;;;25.10;66.00;;;;;;5010825;28;20603;-50
2022/06/10 10:26:53;;;;;;;19.17;4.18;;;25.10;71.00;;;;;;5010953;28;20034;-59
2022/06/10 10:29:21;;;;;;;12.38;4.05;;;24.80;64.40;;;;;;5010699;28;20105;-49
2022/06/10 10:31:47;;;;;;;14.68;4.15;;;24.60;66.10;;;;;;5004219;28;20037;-52
2022/06/10 10:34:21;;;;;;;13.63;4.03;;;24.50;67.30;;;;;;5004749;28;20026;-50
2022/06/10 10:36:49;;;;;;;15.07;4.22;;;24.50;67.60;;;;;;5010672;28;20025;-54
2022/06/10 10:39:25;;;;;;;18.98;4.50;;;24.40;66.60;;;;;;5004268;28;20429;-54
2022/06/10 10:41:53;;;;;;;16.00;4.15;;;24.60;68.70;;;;;;5010721;28;20042;-42
2022/06/10 10:44:33;;;;;;;14.57;3.95;;;24.50;65.70;;;;;;5010451;28;20541;-55
2022/06/10 10:47:10;;;;;;;16.02;4.38;;;24.20;64.20;;;;;;5011147;28;20040;-48
2022/06/10 10:50:05;;;;;;;14.80;3.90;;;24.70;69.50;;;;;;5008840;28;20397;-46
2022/06/10 10:52:34;;;;;;;16.48;4.03;;;24.80;65.30;;;;;;4999101;28;20030;-48
2022/06/10 10:55:05;;;;;;;16.05;3.95;;;24.70;73.10;;;;;;5013746;28;20026;-54
2022/06/10 10:57:35;;;;;;;15.40;4.25;;;24.70;67.30;;;;;;5013778;28;20029;-48
2022/06/10 11:00:09;;;;;;;17.00;4.72;;;25.10;68.80;;;;;;5014019;28;20045;-48
2022/06/10 11:02:39;;;;;;;20.08;5.10;;;24.80;62.60;;;;;;5013659;28;20088;-45
2022/06/10 11:05:22;;;;;;;15.52;4.32;;;24.80;69.40;;;;;;5013639;28;20365;-45
2022/06/10 11:08:13;;;;;;;17.50;4.22;;;24.30;69.20;;;;;;5013095;28;20041;-42
2022/06/10 11:10:56;;;;;;;18.30;4.20;;;24.10;67.10;;;;;;5007098;28;20021;-43
2022/06/10 11:13:54;;;;;;;19.15;4.60;;;24.10;65.60;;;;;;5010812;28;20576;-45
2022/06/10 11:16:32;;;;;;;17.15;4.28;;;24.50;70.00;;;;;;5003018;28;20128;-55
2022/06/10 11:19:00;;;;;;;16.63;4.50;;;24.50;64.80;;;;;;5013530;28;20061;-44
2022/06/10 11:21:27;;;;;;;20.33;4.10;;;24.70;72.90;;;;;;5013591;28;20466;-42
2022/06/10 11:23:56;;;;;;;18.98;4.43;;;25.20;65.10;;;;;;5013657;28;20108;-51
2022/06/10 11:26:24;;;;;;;18.02;4.57;;;25.30;68.20;;;;;;5013108;28;20116;-49
2022/06/10 11:28:59;;;;;;;20.80;4.45;;;25.60;65.50;;;;;;5013303;28;20496;-54
2022/06/10 11:31:28;;;;;;;20.05;4.22;;;25.20;61.90;;;;;;5013050;28;20109;-56
2022/06/10 11:33:57;;;;;;;18.65;4.13;;;25.10;67.30;;;;;;5012699;28;20112;-54
2022/06/10 11:36:35;;;;;;;16.17;5.00;;;25.30;66.50;;;;;;5012770;28;20402;-56
2022/06/10 11:39:18;;;;;;;19.25;5.13;;;25.20;66.70;;;;;;5013109;28;20368;-56
2022/06/10 11:42:07;;;;;;;17.27;4.32;;;25.40;65.10;;;;;;4999473;28;20058;-59
2022/06/10 11:44:37;;;;;;;;;;;25.70;67.10;;;;;;5013466;28;20060;-53
2022/06/10 11:47:21;;;;;;;14.45;4.25;;;25.80;63.90;;;;;;5013218;28;19905;-51
2022/06/10 11:50:00;;;;;;;19.48;4.28;;;25.60;60.10;;;;;;5012990;28;20045;-51
2022/06/10 11:52:38;;;;;;;14.95;4.28;;;25.00;66.00;;;;;;5013017;28;20041;-48
2022/06/10 11:55:15;;;;;;;18.70;4.55;;;24.70;65.20;;;;;;5012858;28;20049;-54
2022/06/10 12:01:23;;;;;;;16.60;4.22;;;24.40;68.20;;;;;;5002601;28;20500;-49
2022/06/10 12:03:58;;;;;;;21.63;4.13;;;24.60;68.10;;;;;;5012779;28;20046;-56
2022/06/10 12:06:53;;;;;;;20.40;3.80;;;24.50;65.90;;;;;;5012013;28;20116;-60
2022/06/10 12:09:44;;;;;;;16.60;4.18;;;24.40;65.00;;;;;;5003647;28;20040;-59
2022/06/10 12:12:34;;;;;;;20.50;4.13;;;23.90;65.20;;;;;;5008161;28;20022;-59
2022/06/10 12:15:12;;;;;;;22.83;4.88;;;23.60;65.80;;;;;;5007885;28;20030;-59
2022/06/10 12:17:41;;;;;;;24.60;4.78;;;23.20;67.00;;;;;;5001612;28;20476;-59
2022/06/10 12:20:30;;;;;;;;;;;22.90;71.70;;;;;;5012945;28;20076;-58
2022/06/10 12:22:57;;;;;;;19.40;4.93;;;23.30;72.10;;;;;;4994610;28;19917;-60
2022/06/10 12:25:50;;;;;;;16.00;4.50;;;23.70;72.50;;;;;;5012486;28;20030;-58
2022/06/10 12:28:25;;;;;;;19.85;4.63;;;23.60;66.50;;;;;;4985031;28;20123;-59
2022/06/10 12:31:00;;;;;;;21.73;4.93;;;23.60;70.00;;;;;;5012123;28;20469;-58
2022/06/10 12:33:47;;;;;;;18.83;4.55;;;24.00;72.30;;;;;;5012231;28;20032;-57
2022/06/10 12:36:22;;;;;;;19.25;5.03;;;24.00;65.80;;;;;;5008919;28;20116;-59
2022/06/10 12:38:51;;;;;;;18.23;4.15;;;24.00;69.40;;;;;;5002016;28;20022;-59
2022/06/10 12:41:26;;;;;;;20.08;4.72;;;23.80;65.60;;;;;;5011707;28;20507;-61
2022/06/10 12:44:01;;;;;;;26.48;4.85;;;23.40;69.40;;;;;;5002451;28;20041;-58
2022/06/10 12:46:36;;;;;;;17.90;4.35;;;22.90;67.70;;;;;;5008893;28;20037;-58
2022/06/10 12:49:24;;;;;;;17.23;3.92;;;22.60;70.60;;;;;;5002082;28;20062;-58
2022/06/10 12:52:20;;;;;;;19.20;4.63;;;22.70;73.90;;;;;;5010406;28;20088;-47
2022/06/10 12:55:21;;;;;;;18.67;3.70;;;23.10;70.50;;;;;;5004273;28;20116;-52
2022/06/10 12:57:48;;;;;;;19.17;4.45;;;23.60;70.10;;;;;;4991553;28;20161;-56
2022/06/10 13:00:23;;;;;;;17.95;3.60;;;23.30;65.60;;;;;;4993405;28;20022;-56
2022/06/10 13:02:59;;;;;;;18.23;4.30;;;23.50;66.40;;;;;;4992000;28;20468;-57
2022/06/10 13:05:40;;;;;;;18.50;4.50;;;23.40;67.40;;;;;;5007992;28;20026;-54
2022/06/10 13:08:34;;;;;;;16.73;3.75;;;23.60;71.40;;;;;;4999423;28;20057;-51
2022/06/10 13:11:01;;;;;;;21.13;4.65;;;23.50;64.50;;;;;;5003790;28;20034;-44
2022/06/10 13:13:27;;;;;;;18.85;4.03;;;23.50;70.20;;;;;;5008165;28;20404;-51
2022/06/10 13:15:56;;;;;;;20.75;4.50;;;23.50;66.80;;;;;;5010573;28;20068;-58
2022/06/10 13:18:34;;;;;;;19.83;4.65;;;23.60;69.10;;;;;;5010330;28;20496;-45
2022/06/10 13:21:15;;;;;;;18.88;4.85;;;23.50;69.60;;;;;;5007785;28;20034;-52
2022/06/10 13:24:11;;;;;;;17.73;4.50;;;23.60;71.10;;;;;;5008624;28;20500;-47
2022/06/10 13:26:37;;;;;;;20.60;4.75;;;23.40;67.00;;;;;;5003937;28;20474;-47